aviador You're here:

KMAI Decoded Metar

MARIANNA in FL, USA
Report Time2017-08-18 15:53:00
UTC Time2017-08-18 16:26:31
Flight Rules vfr VFR
Wind310° at 08 kt
W.Decomp.*RWY 36: 5.4 kt HW 5.9 kt LCW
RWY 26: 4.9 kt HW 6.3 kt RCW
W.Rank310° ranks 19
Current wind is above 310° avg. (6.9)
Visibility9999 m
Phenomena:N/A
Clouds:Few 035 Hf
Expected CloudBase > 4,000 ft AGL from Temp-Dew spread
CeilingNone
Temp33°C (ISA +18)
Dew Point23°C (56% RH)
Heat Index38.1°C
QNH1016 hPa
Density Alt2,448 ft
Elevation105 ft
Report Wrong Elevation
Raw Report
METAR KMAI 181553Z AUTO 31008KT 10SM FEW035 33/23 A3001 RMK AO2 SLP159
T03330233=

Extra information for KMAI:More info

Metar Taf Metar & Taf Last 4 Metars F.Rules Stats Wind Profile Meteogram Temp Stats Airport Information Weather charts Add Link Nearby VenuesMetar ALERT Operation Metar Decoded Social comments

AIRNAV info for KMAI